sensor_id;sensor_type;location;lat;lon;timestamp;P1;durP1;ratioP1;P2;durP2;ratioP2
57730;SDS011;43570;47.476;19.040;2022-11-15T00:00:06;38.30;;;33.70;;
57730;SDS011;43570;47.476;19.040;2022-11-15T00:02:32;37.13;;;33.13;;
57730;SDS011;43570;47.476;19.040;2022-11-15T00:04:58;36.78;;;32.35;;
57730;SDS011;43570;47.476;19.040;2022-11-15T00:07:23;35.45;;;31.65;;
57730;SDS011;43570;47.476;19.040;2022-11-15T00:09:48;36.42;;;32.53;;
57730;SDS011;43570;47.476;19.040;2022-11-15T00:12:14;35.47;;;31.62;;
57730;SDS011;43570;47.476;19.040;2022-11-15T00:14:39;35.30;;;31.55;;
57730;SDS011;43570;47.476;19.040;2022-11-15T00:17:04;39.20;;;34.40;;
57730;SDS011;43570;47.476;19.040;2022-11-15T00:19:30;38.45;;;33.17;;
57730;SDS011;43570;47.476;19.040;2022-11-15T00:21:55;37.30;;;32.85;;
57730;SDS011;43570;47.476;19.040;2022-11-15T00:24:21;37.85;;;33.60;;
57730;SDS011;43570;47.476;19.040;2022-11-15T00:26:46;38.55;;;34.42;;
57730;SDS011;43570;47.476;19.040;2022-11-15T00:29:11;39.38;;;35.08;;
57730;SDS011;43570;47.476;19.040;2022-11-15T00:31:37;38.42;;;33.80;;
57730;SDS011;43570;47.476;19.040;2022-11-15T00:34:02;38.83;;;33.67;;
57730;SDS011;43570;47.476;19.040;2022-11-15T00:36:27;38.28;;;34.08;;
57730;SDS011;43570;47.476;19.040;2022-11-15T00:38:53;39.33;;;33.72;;
57730;SDS011;43570;47.476;19.040;2022-11-15T00:41:18;36.83;;;32.22;;
57730;SDS011;43570;47.476;19.040;2022-11-15T00:43:43;36.85;;;32.17;;
57730;SDS011;43570;47.476;19.040;2022-11-15T00:46:09;35.45;;;31.67;;
57730;SDS011;43570;47.476;19.040;2022-11-15T00:48:35;34.33;;;30.67;;
57730;SDS011;43570;47.476;19.040;2022-11-15T00:51:01;34.00;;;30.37;;
57730;SDS011;43570;47.476;19.040;2022-11-15T00:53:26;35.72;;;30.05;;
57730;SDS011;43570;47.476;19.040;2022-11-15T00:55:52;33.20;;;29.70;;
57730;SDS011;43570;47.476;19.040;2022-11-15T00:58:18;33.13;;;29.73;;
57730;SDS011;43570;47.476;19.040;2022-11-15T01:00:43;33.85;;;30.25;;
57730;SDS011;43570;47.476;19.040;2022-11-15T01:03:08;34.25;;;30.62;;
57730;SDS011;43570;47.476;19.040;2022-11-15T01:05:36;32.55;;;28.87;;
57730;SDS011;43570;47.476;19.040;2022-11-15T01:08:02;32.55;;;29.02;;
57730;SDS011;43570;47.476;19.040;2022-11-15T01:10:27;32.30;;;28.90;;
57730;SDS011;43570;47.476;19.040;2022-11-15T01:12:53;32.63;;;29.23;;
57730;SDS011;43570;47.476;19.040;2022-11-15T01:15:18;31.15;;;27.90;;
57730;SDS011;43570;47.476;19.040;2022-11-15T01:17:43;31.85;;;28.60;;
57730;SDS011;43570;47.476;19.040;2022-11-15T01:20:09;30.85;;;27.58;;
57730;SDS011;43570;47.476;19.040;2022-11-15T01:22:34;29.85;;;26.62;;
57730;SDS011;43570;47.476;19.040;2022-11-15T01:25:00;30.65;;;27.42;;
57730;SDS011;43570;47.476;19.040;2022-11-15T01:27:25;30.35;;;26.90;;
57730;SDS011;43570;47.476;19.040;2022-11-15T01:29:50;29.85;;;26.75;;
57730;SDS011;43570;47.476;19.040;2022-11-15T01:32:16;29.37;;;26.27;;
57730;SDS011;43570;47.476;19.040;2022-11-15T01:34:41;28.02;;;25.10;;
57730;SDS011;43570;47.476;19.040;2022-11-15T01:37:06;27.73;;;24.80;;
57730;SDS011;43570;47.476;19.040;2022-11-15T01:39:32;27.75;;;24.75;;
57730;SDS011;43570;47.476;19.040;2022-11-15T01:41:57;25.88;;;23.23;;
57730;SDS011;43570;47.476;19.040;2022-11-15T01:47:17;25.67;;;23.00;;
57730;SDS011;43570;47.476;19.040;2022-11-15T01:50:08;25.80;;;23.00;;
57730;SDS011;43570;47.476;19.040;2022-11-15T01:52:32;24.73;;;22.13;;
57730;SDS011;43570;47.476;19.040;2022-11-15T01:55:03;26.55;;;23.77;;
57730;SDS011;43570;47.476;19.040;2022-11-15T01:57:35;25.75;;;23.12;;
57730;SDS011;43570;47.476;19.040;2022-11-15T02:00:00;24.45;;;21.95;;
57730;SDS011;43570;47.476;19.040;2022-11-15T02:02:28;25.30;;;22.73;;
57730;SDS011;43570;47.476;19.040;2022-11-15T02:04:53;24.05;;;21.65;;
57730;SDS011;43570;47.476;19.040;2022-11-15T02:07:19;24.08;;;21.52;;
57730;SDS011;43570;47.476;19.040;2022-11-15T02:09:45;23.58;;;21.17;;
57730;SDS011;43570;47.476;19.040;2022-11-15T02:12:11;23.20;;;20.92;;
57730;SDS011;43570;47.476;19.040;2022-11-15T02:14:39;23.95;;;21.35;;
57730;SDS011;43570;47.476;19.040;2022-11-15T02:25:09;23.30;;;20.95;;
57730;SDS011;43570;47.476;19.040;2022-11-15T02:27:59;23.33;;;21.02;;
57730;SDS011;43570;47.476;19.040;2022-11-15T02:33:41;24.55;;;22.05;;
57730;SDS011;43570;47.476;19.040;2022-11-15T02:36:16;25.35;;;22.70;;
57730;SDS011;43570;47.476;19.040;2022-11-15T02:41:17;23.67;;;21.17;;
57730;SDS011;43570;47.476;19.040;2022-11-15T02:44:16;25.37;;;22.77;;
57730;SDS011;43570;47.476;19.040;2022-11-15T02:46:53;25.83;;;23.12;;
57730;SDS011;43570;47.476;19.040;2022-11-15T02:49:39;27.40;;;24.50;;
57730;SDS011;43570;47.476;19.040;2022-11-15T02:52:25;27.83;;;24.98;;
57730;SDS011;43570;47.476;19.040;2022-11-15T03:00:08;32.13;;;28.02;;
57730;SDS011;43570;47.476;19.040;2022-11-15T03:05:35;31.75;;;28.42;;
57730;SDS011;43570;47.476;19.040;2022-11-15T03:10:40;30.62;;;27.35;;
57730;SDS011;43570;47.476;19.040;2022-11-15T03:15:53;33.25;;;27.37;;
57730;SDS011;43570;47.476;19.040;2022-11-15T03:18:28;30.95;;;27.55;;
57730;SDS011;43570;47.476;19.040;2022-11-15T03:20:57;30.30;;;26.83;;
57730;SDS011;43570;47.476;19.040;2022-11-15T03:23:24;30.95;;;26.55;;
57730;SDS011;43570;47.476;19.040;2022-11-15T03:25:50;29.15;;;25.40;;
57730;SDS011;43570;47.476;19.040;2022-11-15T03:28:18;27.60;;;24.60;;
57730;SDS011;43570;47.476;19.040;2022-11-15T03:30:49;28.73;;;25.62;;
57730;SDS011;43570;47.476;19.040;2022-11-15T03:33:15;28.42;;;25.33;;
57730;SDS011;43570;47.476;19.040;2022-11-15T03:35:42;29.08;;;25.27;;
57730;SDS011;43570;47.476;19.040;2022-11-15T03:38:11;29.17;;;25.98;;
57730;SDS011;43570;47.476;19.040;2022-11-15T03:45:57;26.00;;;23.23;;
57730;SDS011;43570;47.476;19.040;2022-11-15T03:48:27;24.80;;;22.10;;
57730;SDS011;43570;47.476;19.040;2022-11-15T03:50:55;26.55;;;23.73;;
57730;SDS011;43570;47.476;19.040;2022-11-15T03:53:21;26.48;;;22.98;;
57730;SDS011;43570;47.476;19.040;2022-11-15T03:55:46;24.75;;;22.17;;
57730;SDS011;43570;47.476;19.040;2022-11-15T03:58:12;23.70;;;21.10;;
57730;SDS011;43570;47.476;19.040;2022-11-15T04:00:37;25.35;;;22.65;;
57730;SDS011;43570;47.476;19.040;2022-11-15T04:03:03;24.92;;;22.27;;
57730;SDS011;43570;47.476;19.040;2022-11-15T04:05:28;25.30;;;22.40;;
57730;SDS011;43570;47.476;19.040;2022-11-15T04:07:53;25.40;;;22.60;;
57730;SDS011;43570;47.476;19.040;2022-11-15T04:10:19;24.30;;;21.65;;
57730;SDS011;43570;47.476;19.040;2022-11-15T04:12:45;25.80;;;22.92;;
57730;SDS011;43570;47.476;19.040;2022-11-15T04:15:16;24.80;;;22.10;;
57730;SDS011;43570;47.476;19.040;2022-11-15T04:20:10;24.58;;;21.92;;
57730;SDS011;43570;47.476;19.040;2022-11-15T04:22:56;25.37;;;22.73;;
57730;SDS011;43570;47.476;19.040;2022-11-15T04:25:41;24.70;;;22.10;;
57730;SDS011;43570;47.476;19.040;2022-11-15T04:28:06;24.15;;;21.70;;
57730;SDS011;43570;47.476;19.040;2022-11-15T04:30:32;25.05;;;21.52;;
57730;SDS011;43570;47.476;19.040;2022-11-15T04:32:57;28.48;;;22.30;;
57730;SDS011;43570;47.476;19.040;2022-11-15T04:35:23;25.02;;;21.95;;
57730;SDS011;43570;47.476;19.040;2022-11-15T04:37:48;23.83;;;21.35;;
57730;SDS011;43570;47.476;19.040;2022-11-15T04:40:13;24.80;;;22.20;;
57730;SDS011;43570;47.476;19.040;2022-11-15T04:42:40;24.12;;;21.58;;
57730;SDS011;43570;47.476;19.040;2022-11-15T04:45:07;24.83;;;22.02;;
57730;SDS011;43570;47.476;19.040;2022-11-15T04:47:33;25.42;;;22.73;;
57730;SDS011;43570;47.476;19.040;2022-11-15T04:49:58;24.85;;;22.20;;
57730;SDS011;43570;47.476;19.040;2022-11-15T04:52:24;26.23;;;23.42;;
57730;SDS011;43570;47.476;19.040;2022-11-15T04:54:49;28.12;;;23.27;;
57730;SDS011;43570;47.476;19.040;2022-11-15T04:57:14;26.58;;;23.77;;
57730;SDS011;43570;47.476;19.040;2022-11-15T04:59:40;25.98;;;23.27;;
57730;SDS011;43570;47.476;19.040;2022-11-15T05:02:05;26.20;;;23.40;;
57730;SDS011;43570;47.476;19.040;2022-11-15T05:04:30;27.30;;;24.25;;
57730;SDS011;43570;47.476;19.040;2022-11-15T05:06:56;25.48;;;22.75;;
57730;SDS011;43570;47.476;19.040;2022-11-15T05:09:21;27.02;;;23.80;;
57730;SDS011;43570;47.476;19.040;2022-11-15T05:11:46;29.12;;;24.70;;
57730;SDS011;43570;47.476;19.040;2022-11-15T05:14:12;27.33;;;24.42;;
57730;SDS011;43570;47.476;19.040;2022-11-15T05:16:38;26.20;;;23.35;;
57730;SDS011;43570;47.476;19.040;2022-11-15T05:19:03;25.98;;;23.17;;
57730;SDS011;43570;47.476;19.040;2022-11-15T05:21:30;26.02;;;23.25;;
57730;SDS011;43570;47.476;19.040;2022-11-15T05:23:55;26.40;;;23.50;;
57730;SDS011;43570;47.476;19.040;2022-11-15T05:26:21;27.58;;;24.65;;
57730;SDS011;43570;47.476;19.040;2022-11-15T05:28:46;27.02;;;24.25;;
57730;SDS011;43570;47.476;19.040;2022-11-15T05:31:15;27.55;;;24.02;;
57730;SDS011;43570;47.476;19.040;2022-11-15T05:33:41;27.52;;;24.70;;
57730;SDS011;43570;47.476;19.040;2022-11-15T05:41:13;29.40;;;25.48;;
57730;SDS011;43570;47.476;19.040;2022-11-15T05:43:39;29.42;;;26.05;;
57730;SDS011;43570;47.476;19.040;2022-11-15T05:46:06;30.30;;;25.48;;
57730;SDS011;43570;47.476;19.040;2022-11-15T05:48:32;29.63;;;26.45;;
57730;SDS011;43570;47.476;19.040;2022-11-15T05:50:59;29.70;;;26.60;;
57730;SDS011;43570;47.476;19.040;2022-11-15T05:53:24;30.88;;;27.62;;
57730;SDS011;43570;47.476;19.040;2022-11-15T05:55:50;31.23;;;27.92;;
57730;SDS011;43570;47.476;19.040;2022-11-15T05:58:16;29.63;;;25.80;;
57730;SDS011;43570;47.476;19.040;2022-11-15T06:00:42;29.48;;;26.35;;
57730;SDS011;43570;47.476;19.040;2022-11-15T06:03:08;31.48;;;27.48;;
57730;SDS011;43570;47.476;19.040;2022-11-15T06:05:33;30.77;;;26.87;;
57730;SDS011;43570;47.476;19.040;2022-11-15T06:07:59;31.55;;;28.20;;
57730;SDS011;43570;47.476;19.040;2022-11-15T06:10:24;32.05;;;28.65;;
57730;SDS011;43570;47.476;19.040;2022-11-15T06:12:57;31.25;;;28.05;;
57730;SDS011;43570;47.476;19.040;2022-11-15T06:15:26;32.45;;;28.95;;
57730;SDS011;43570;47.476;19.040;2022-11-15T06:17:51;33.42;;;29.87;;
57730;SDS011;43570;47.476;19.040;2022-11-15T06:20:17;34.72;;;31.00;;
57730;SDS011;43570;47.476;19.040;2022-11-15T06:22:42;34.40;;;30.75;;
57730;SDS011;43570;47.476;19.040;2022-11-15T06:25:08;33.25;;;28.87;;
57730;SDS011;43570;47.476;19.040;2022-11-15T06:27:33;33.83;;;28.90;;
57730;SDS011;43570;47.476;19.040;2022-11-15T06:29:58;35.22;;;31.30;;
57730;SDS011;43570;47.476;19.040;2022-11-15T06:32:24;35.22;;;31.40;;
57730;SDS011;43570;47.476;19.040;2022-11-15T06:34:49;34.97;;;31.15;;
57730;SDS011;43570;47.476;19.040;2022-11-15T06:37:15;34.47;;;30.88;;
57730;SDS011;43570;47.476;19.040;2022-11-15T06:39:40;35.83;;;32.03;;
57730;SDS011;43570;47.476;19.040;2022-11-15T06:42:05;35.63;;;31.75;;
57730;SDS011;43570;47.476;19.040;2022-11-15T06:44:33;34.85;;;31.02;;
57730;SDS011;43570;47.476;19.040;2022-11-15T06:46:58;34.35;;;30.73;;
57730;SDS011;43570;47.476;19.040;2022-11-15T06:49:24;38.42;;;34.33;;
57730;SDS011;43570;47.476;19.040;2022-11-15T06:51:49;36.53;;;32.63;;
57730;SDS011;43570;47.476;19.040;2022-11-15T06:54:14;35.80;;;32.00;;
57730;SDS011;43570;47.476;19.040;2022-11-15T06:56:40;35.03;;;31.33;;
57730;SDS011;43570;47.476;19.040;2022-11-15T06:59:05;37.05;;;33.05;;
57730;SDS011;43570;47.476;19.040;2022-11-15T07:01:31;36.22;;;32.38;;
57730;SDS011;43570;47.476;19.040;2022-11-15T07:03:56;35.78;;;31.92;;
57730;SDS011;43570;47.476;19.040;2022-11-15T07:06:21;36.30;;;32.47;;
57730;SDS011;43570;47.476;19.040;2022-11-15T07:08:47;36.33;;;32.55;;
57730;SDS011;43570;47.476;19.040;2022-11-15T07:11:12;36.63;;;32.05;;
57730;SDS011;43570;47.476;19.040;2022-11-15T07:13:38;38.72;;;34.63;;
57730;SDS011;43570;47.476;19.040;2022-11-15T07:16:04;37.88;;;33.80;;
57730;SDS011;43570;47.476;19.040;2022-11-15T07:18:33;40.17;;;35.88;;
57730;SDS011;43570;47.476;19.040;2022-11-15T07:21:06;36.72;;;32.83;;
57730;SDS011;43570;47.476;19.040;2022-11-15T07:23:32;36.90;;;33.08;;
57730;SDS011;43570;47.476;19.040;2022-11-15T07:25:58;36.70;;;32.03;;
57730;SDS011;43570;47.476;19.040;2022-11-15T07:28:24;38.63;;;32.97;;
57730;SDS011;43570;47.476;19.040;2022-11-15T07:30:50;37.65;;;33.75;;
57730;SDS011;43570;47.476;19.040;2022-11-15T07:33:16;35.13;;;31.42;;
57730;SDS011;43570;47.476;19.040;2022-11-15T07:35:41;36.67;;;32.53;;
57730;SDS011;43570;47.476;19.040;2022-11-15T07:38:07;35.33;;;31.58;;
57730;SDS011;43570;47.476;19.040;2022-11-15T07:40:33;36.67;;;32.90;;
57730;SDS011;43570;47.476;19.040;2022-11-15T07:43:02;35.53;;;31.75;;
57730;SDS011;43570;47.476;19.040;2022-11-15T07:45:29;36.80;;;32.90;;
57730;SDS011;43570;47.476;19.040;2022-11-15T07:47:54;37.60;;;33.63;;
57730;SDS011;43570;47.476;19.040;2022-11-15T07:50:21;36.20;;;32.13;;
57730;SDS011;43570;47.476;19.040;2022-11-15T07:52:52;36.97;;;32.60;;
57730;SDS011;43570;47.476;19.040;2022-11-15T07:55:18;38.72;;;33.50;;
57730;SDS011;43570;47.476;19.040;2022-11-15T07:57:44;40.78;;;34.33;;
57730;SDS011;43570;47.476;19.040;2022-11-15T08:00:09;36.85;;;33.00;;
57730;SDS011;43570;47.476;19.040;2022-11-15T08:02:35;38.58;;;33.85;;
57730;SDS011;43570;47.476;19.040;2022-11-15T08:05:00;36.50;;;32.70;;
57730;SDS011;43570;47.476;19.040;2022-11-15T08:07:28;38.92;;;34.72;;
57730;SDS011;43570;47.476;19.040;2022-11-15T08:09:54;38.13;;;34.00;;
57730;SDS011;43570;47.476;19.040;2022-11-15T08:12:20;40.45;;;36.13;;
57730;SDS011;43570;47.476;19.040;2022-11-15T08:14:45;36.83;;;32.90;;
57730;SDS011;43570;47.476;19.040;2022-11-15T08:17:10;37.65;;;33.55;;
57730;SDS011;43570;47.476;19.040;2022-11-15T08:19:36;39.10;;;34.90;;
57730;SDS011;43570;47.476;19.040;2022-11-15T08:22:01;39.00;;;34.75;;
57730;SDS011;43570;47.476;19.040;2022-11-15T08:24:27;39.72;;;35.42;;
57730;SDS011;43570;47.476;19.040;2022-11-15T08:26:52;38.38;;;34.28;;
57730;SDS011;43570;47.476;19.040;2022-11-15T08:29:17;37.63;;;33.45;;
57730;SDS011;43570;47.476;19.040;2022-11-15T08:31:43;40.40;;;35.97;;
57730;SDS011;43570;47.476;19.040;2022-11-15T08:34:08;40.90;;;36.42;;
57730;SDS011;43570;47.476;19.040;2022-11-15T08:36:33;42.45;;;37.83;;
57730;SDS011;43570;47.476;19.040;2022-11-15T08:38:59;43.25;;;38.65;;
57730;SDS011;43570;47.476;19.040;2022-11-15T08:41:26;41.95;;;37.40;;
57730;SDS011;43570;47.476;19.040;2022-11-15T08:43:55;44.17;;;39.38;;
57730;SDS011;43570;47.476;19.040;2022-11-15T08:46:20;42.92;;;38.42;;
57730;SDS011;43570;47.476;19.040;2022-11-15T08:48:46;44.00;;;36.92;;
57730;SDS011;43570;47.476;19.040;2022-11-15T09:04:51;44.15;;;39.38;;
57730;SDS011;43570;47.476;19.040;2022-11-15T09:07:39;42.95;;;37.45;;
57730;SDS011;43570;47.476;19.040;2022-11-15T09:10:08;43.95;;;38.60;;
57730;SDS011;43570;47.476;19.040;2022-11-15T09:26:14;41.75;;;37.45;;
57730;SDS011;43570;47.476;19.040;2022-11-15T09:28:40;40.05;;;35.85;;
57730;SDS011;43570;47.476;19.040;2022-11-15T09:31:07;39.08;;;34.95;;
57730;SDS011;43570;47.476;19.040;2022-11-15T09:33:33;39.67;;;35.33;;
57730;SDS011;43570;47.476;19.040;2022-11-15T09:35:59;39.88;;;35.67;;
57730;SDS011;43570;47.476;19.040;2022-11-15T09:38:26;40.05;;;35.65;;
57730;SDS011;43570;47.476;19.040;2022-11-15T09:40:53;41.35;;;36.85;;
57730;SDS011;43570;47.476;19.040;2022-11-15T09:48:38;40.40;;;36.00;;
57730;SDS011;43570;47.476;19.040;2022-11-15T09:51:09;41.30;;;37.00;;
57730;SDS011;43570;47.476;19.040;2022-11-15T09:53:52;42.38;;;37.83;;
57730;SDS011;43570;47.476;19.040;2022-11-15T09:56:37;42.40;;;38.00;;
57730;SDS011;43570;47.476;19.040;2022-11-15T10:04:48;43.47;;;38.97;;
57730;SDS011;43570;47.476;19.040;2022-11-15T10:07:15;44.05;;;39.45;;
57730;SDS011;43570;47.476;19.040;2022-11-15T10:09:48;45.42;;;40.78;;
57730;SDS011;43570;47.476;19.040;2022-11-15T10:12:34;45.95;;;40.70;;
57730;SDS011;43570;47.476;19.040;2022-11-15T10:15:01;45.70;;;40.72;;
57730;SDS011;43570;47.476;19.040;2022-11-15T10:17:36;44.45;;;39.70;;
57730;SDS011;43570;47.476;19.040;2022-11-15T10:46:35;45.67;;;40.72;;
57730;SDS011;43570;47.476;19.040;2022-11-15T10:49:22;45.95;;;41.17;;
57730;SDS011;43570;47.476;19.040;2022-11-15T10:51:59;49.03;;;41.88;;
57730;SDS011;43570;47.476;19.040;2022-11-15T10:57:04;44.03;;;39.65;;
57730;SDS011;43570;47.476;19.040;2022-11-15T10:59:34;48.87;;;43.60;;
57730;SDS011;43570;47.476;19.040;2022-11-15T11:02:01;45.92;;;41.05;;
57730;SDS011;43570;47.476;19.040;2022-11-15T11:04:27;46.53;;;41.42;;
57730;SDS011;43570;47.476;19.040;2022-11-15T11:06:54;47.85;;;42.67;;
57730;SDS011;43570;47.476;19.040;2022-11-15T11:09:36;45.45;;;40.65;;
57730;SDS011;43570;47.476;19.040;2022-11-15T11:12:04;47.62;;;42.60;;
57730;SDS011;43570;47.476;19.040;2022-11-15T11:14:32;45.90;;;41.08;;
57730;SDS011;43570;47.476;19.040;2022-11-15T11:19:37;42.05;;;37.72;;
57730;SDS011;43570;47.476;19.040;2022-11-15T11:25:04;44.58;;;39.88;;
57730;SDS011;43570;47.476;19.040;2022-11-15T11:33:33;42.15;;;37.63;;
57730;SDS011;43570;47.476;19.040;2022-11-15T11:42:04;44.45;;;39.67;;
57730;SDS011;43570;47.476;19.040;2022-11-15T11:47:31;42.70;;;38.13;;
57730;SDS011;43570;47.476;19.040;2022-11-15T11:50:02;44.33;;;39.63;;
57730;SDS011;43570;47.476;19.040;2022-11-15T11:55:18;44.25;;;39.75;;
57730;SDS011;43570;47.476;19.040;2022-11-15T11:58:04;44.05;;;39.58;;
57730;SDS011;43570;47.476;19.040;2022-11-15T12:00:41;44.33;;;39.70;;
57730;SDS011;43570;47.476;19.040;2022-11-15T12:03:14;45.38;;;40.58;;
57730;SDS011;43570;47.476;19.040;2022-11-15T12:05:54;45.35;;;40.50;;
57730;SDS011;43570;47.476;19.040;2022-11-15T12:11:07;45.88;;;41.00;;
57730;SDS011;43570;47.476;19.040;2022-11-15T12:13:36;46.58;;;41.75;;
57730;SDS011;43570;47.476;19.040;2022-11-15T12:16:05;48.80;;;42.88;;
57730;SDS011;43570;47.476;19.040;2022-11-15T12:18:35;47.38;;;42.33;;
57730;SDS011;43570;47.476;19.040;2022-11-15T12:21:16;48.95;;;43.70;;
57730;SDS011;43570;47.476;19.040;2022-11-15T12:23:51;50.60;;;45.10;;
57730;SDS011;43570;47.476;19.040;2022-11-15T12:26:20;48.63;;;43.40;;
57730;SDS011;43570;47.476;19.040;2022-11-15T12:33:49;48.78;;;43.50;;
57730;SDS011;43570;47.476;19.040;2022-11-15T12:39:04;54.05;;;48.22;;
57730;SDS011;43570;47.476;19.040;2022-11-15T12:41:32;53.25;;;47.60;;
57730;SDS011;43570;47.476;19.040;2022-11-15T12:43:58;57.00;;;50.45;;
57730;SDS011;43570;47.476;19.040;2022-11-15T12:48:57;55.67;;;49.58;;
57730;SDS011;43570;47.476;19.040;2022-11-15T12:59:52;59.35;;;52.85;;
57730;SDS011;43570;47.476;19.040;2022-11-15T13:02:33;65.33;;;58.20;;
57730;SDS011;43570;47.476;19.040;2022-11-15T13:17:46;58.97;;;52.35;;
57730;SDS011;43570;47.476;19.040;2022-11-15T13:30:36;49.75;;;44.45;;
57730;SDS011;43570;47.476;19.040;2022-11-15T13:33:19;47.92;;;42.83;;
57730;SDS011;43570;47.476;19.040;2022-11-15T13:35:47;49.42;;;44.03;;
57730;SDS011;43570;47.476;19.040;2022-11-15T13:38:57;46.25;;;41.25;;
57730;SDS011;43570;47.476;19.040;2022-11-15T13:41:19;52.73;;;44.83;;
57730;SDS011;43570;47.476;19.040;2022-11-15T13:43:46;52.03;;;46.10;;
57730;SDS011;43570;47.476;19.040;2022-11-15T13:46:17;53.70;;;45.80;;
57730;SDS011;43570;47.476;19.040;2022-11-15T13:48:47;55.05;;;47.78;;
57730;SDS011;43570;47.476;19.040;2022-11-15T13:53:44;50.17;;;44.67;;
57730;SDS011;43570;47.476;19.040;2022-11-15T13:56:12;46.50;;;41.40;;
57730;SDS011;43570;47.476;19.040;2022-11-15T13:58:38;46.05;;;39.88;;
57730;SDS011;43570;47.476;19.040;2022-11-15T14:01:04;45.25;;;40.35;;
57730;SDS011;43570;47.476;19.040;2022-11-15T14:03:32;47.55;;;42.30;;
57730;SDS011;43570;47.476;19.040;2022-11-15T14:08:32;46.97;;;42.05;;
57730;SDS011;43570;47.476;19.040;2022-11-15T14:11:17;46.25;;;40.25;;
57730;SDS011;43570;47.476;19.040;2022-11-15T14:19:03;47.07;;;41.97;;
57730;SDS011;43570;47.476;19.040;2022-11-15T14:21:30;44.40;;;39.70;;
57730;SDS011;43570;47.476;19.040;2022-11-15T14:24:15;44.17;;;39.42;;
57730;SDS011;43570;47.476;19.040;2022-11-15T14:26:41;43.17;;;37.75;;
57730;SDS011;43570;47.476;19.040;2022-11-15T14:31:52;46.70;;;41.60;;
57730;SDS011;43570;47.476;19.040;2022-11-15T14:34:18;48.17;;;41.47;;
57730;SDS011;43570;47.476;19.040;2022-11-15T14:36:43;47.92;;;41.92;;
57730;SDS011;43570;47.476;19.040;2022-11-15T14:39:09;47.03;;;40.12;;
57730;SDS011;43570;47.476;19.040;2022-11-15T14:41:35;47.92;;;41.33;;
57730;SDS011;43570;47.476;19.040;2022-11-15T14:44:02;44.17;;;39.17;;
57730;SDS011;43570;47.476;19.040;2022-11-15T14:46:28;47.03;;;40.97;;
57730;SDS011;43570;47.476;19.040;2022-11-15T14:48:54;46.90;;;41.35;;
57730;SDS011;43570;47.476;19.040;2022-11-15T14:51:19;46.60;;;41.60;;
57730;SDS011;43570;47.476;19.040;2022-11-15T14:53:45;47.13;;;41.95;;
57730;SDS011;43570;47.476;19.040;2022-11-15T14:56:11;49.05;;;43.22;;
57730;SDS011;43570;47.476;19.040;2022-11-15T14:58:37;51.05;;;43.78;;
57730;SDS011;43570;47.476;19.040;2022-11-15T15:01:03;49.88;;;42.78;;
57730;SDS011;43570;47.476;19.040;2022-11-15T15:03:36;47.17;;;42.10;;
57730;SDS011;43570;47.476;19.040;2022-11-15T15:06:01;46.83;;;41.75;;
57730;SDS011;43570;47.476;19.040;2022-11-15T15:08:26;51.50;;;44.60;;
57730;SDS011;43570;47.476;19.040;2022-11-15T15:10:52;48.30;;;41.72;;
57730;SDS011;43570;47.476;19.040;2022-11-15T15:13:19;49.03;;;43.63;;
57730;SDS011;43570;47.476;19.040;2022-11-15T15:15:49;53.55;;;44.90;;
57730;SDS011;43570;47.476;19.040;2022-11-15T15:18:15;48.30;;;41.33;;
57730;SDS011;43570;47.476;19.040;2022-11-15T15:20:41;49.50;;;41.90;;
57730;SDS011;43570;47.476;19.040;2022-11-15T15:23:15;47.83;;;40.92;;
57730;SDS011;43570;47.476;19.040;2022-11-15T15:25:42;50.40;;;43.15;;
57730;SDS011;43570;47.476;19.040;2022-11-15T15:28:08;48.92;;;41.40;;
57730;SDS011;43570;47.476;19.040;2022-11-15T15:30:34;47.20;;;42.13;;
57730;SDS011;43570;47.476;19.040;2022-11-15T15:32:59;47.60;;;41.70;;
57730;SDS011;43570;47.476;19.040;2022-11-15T15:35:26;51.17;;;44.03;;
57730;SDS011;43570;47.476;19.040;2022-11-15T15:37:55;48.30;;;41.53;;
57730;SDS011;43570;47.476;19.040;2022-11-15T15:40:21;48.60;;;41.97;;
57730;SDS011;43570;47.476;19.040;2022-11-15T15:42:47;50.35;;;43.03;;
57730;SDS011;43570;47.476;19.040;2022-11-15T15:45:13;49.50;;;42.35;;
57730;SDS011;43570;47.476;19.040;2022-11-15T15:47:40;48.33;;;42.55;;
57730;SDS011;43570;47.476;19.040;2022-11-15T15:52:46;54.13;;;43.85;;
57730;SDS011;43570;47.476;19.040;2022-11-15T15:55:11;50.33;;;43.45;;
57730;SDS011;43570;47.476;19.040;2022-11-15T15:57:37;50.00;;;43.30;;
57730;SDS011;43570;47.476;19.040;2022-11-15T16:00:03;51.50;;;43.65;;
57730;SDS011;43570;47.476;19.040;2022-11-15T16:02:29;54.83;;;44.95;;
57730;SDS011;43570;47.476;19.040;2022-11-15T16:04:54;54.00;;;45.63;;
57730;SDS011;43570;47.476;19.040;2022-11-15T16:07:23;58.83;;;46.00;;
57730;SDS011;43570;47.476;19.040;2022-11-15T16:09:48;52.62;;;45.38;;
57730;SDS011;43570;47.476;19.040;2022-11-15T16:12:27;52.78;;;45.25;;
57730;SDS011;43570;47.476;19.040;2022-11-15T16:14:57;52.53;;;44.75;;
57730;SDS011;43570;47.476;19.040;2022-11-15T16:17:23;54.40;;;45.67;;
57730;SDS011;43570;47.476;19.040;2022-11-15T16:19:51;54.90;;;44.20;;
57730;SDS011;43570;47.476;19.040;2022-11-15T16:22:16;54.80;;;45.38;;
57730;SDS011;43570;47.476;19.040;2022-11-15T16:24:41;57.30;;;46.58;;
57730;SDS011;43570;47.476;19.040;2022-11-15T16:27:25;61.95;;;48.85;;
57730;SDS011;43570;47.476;19.040;2022-11-15T16:29:50;57.40;;;46.67;;
57730;SDS011;43570;47.476;19.040;2022-11-15T16:32:15;62.00;;;49.40;;
57730;SDS011;43570;47.476;19.040;2022-11-15T16:34:41;62.45;;;50.20;;
57730;SDS011;43570;47.476;19.040;2022-11-15T16:37:18;61.70;;;49.78;;
57730;SDS011;43570;47.476;19.040;2022-11-15T16:39:47;61.92;;;49.40;;
57730;SDS011;43570;47.476;19.040;2022-11-15T16:42:12;64.82;;;51.17;;
57730;SDS011;43570;47.476;19.040;2022-11-15T16:44:37;64.75;;;50.60;;
57730;SDS011;43570;47.476;19.040;2022-11-15T16:47:03;63.65;;;50.50;;
57730;SDS011;43570;47.476;19.040;2022-11-15T16:49:28;64.95;;;50.83;;
57730;SDS011;43570;47.476;19.040;2022-11-15T16:51:53;66.57;;;51.85;;
57730;SDS011;43570;47.476;19.040;2022-11-15T16:54:19;66.90;;;50.90;;
57730;SDS011;43570;47.476;19.040;2022-11-15T16:56:44;64.65;;;51.17;;
57730;SDS011;43570;47.476;19.040;2022-11-15T16:59:13;69.20;;;52.75;;
57730;SDS011;43570;47.476;19.040;2022-11-15T17:01:41;67.72;;;53.72;;
57730;SDS011;43570;47.476;19.040;2022-11-15T17:04:15;68.22;;;53.80;;
57730;SDS011;43570;47.476;19.040;2022-11-15T17:06:42;66.35;;;52.45;;
57730;SDS011;43570;47.476;19.040;2022-11-15T17:09:18;69.22;;;54.05;;
57730;SDS011;43570;47.476;19.040;2022-11-15T17:11:46;71.47;;;55.12;;
57730;SDS011;43570;47.476;19.040;2022-11-15T17:14:11;67.70;;;53.50;;
57730;SDS011;43570;47.476;19.040;2022-11-15T17:16:37;71.43;;;56.22;;
57730;SDS011;43570;47.476;19.040;2022-11-15T17:19:06;68.93;;;54.70;;
57730;SDS011;43570;47.476;19.040;2022-11-15T17:21:36;70.70;;;55.85;;
57730;SDS011;43570;47.476;19.040;2022-11-15T17:24:02;71.07;;;56.05;;
57730;SDS011;43570;47.476;19.040;2022-11-15T17:26:27;71.97;;;55.00;;